sensor_id;sensor_type;location;lat;lon;timestamp;temperature;humidity
76607;DHT22;65498;50.916;4.698;2023-04-01T00:00:54;21.80;48.40
76607;DHT22;65498;50.916;4.698;2023-04-01T00:03:23;21.80;48.40
76607;DHT22;65498;50.916;4.698;2023-04-01T00:05:50;21.80;48.20
76607;DHT22;65498;50.916;4.698;2023-04-01T00:08:18;21.80;48.10
76607;DHT22;65498;50.916;4.698;2023-04-01T00:10:46;21.90;48.00
76607;DHT22;65498;50.916;4.698;2023-04-01T00:13:14;21.90;48.10
76607;DHT22;65498;50.916;4.698;2023-04-01T00:15:42;21.80;48.10
76607;DHT22;65498;50.916;4.698;2023-04-01T00:18:10;22.00;47.90
76607;DHT22;65498;50.916;4.698;2023-04-01T00:20:39;22.00;48.90
76607;DHT22;65498;50.916;4.698;2023-04-01T00:23:06;21.90;48.80
76607;DHT22;65498;50.916;4.698;2023-04-01T00:25:34;21.90;49.00
76607;DHT22;65498;50.916;4.698;2023-04-01T00:28:01;21.80;49.10
76607;DHT22;65498;50.916;4.698;2023-04-01T00:30:29;21.80;49.20
76607;DHT22;65498;50.916;4.698;2023-04-01T00:32:56;21.80;49.10
76607;DHT22;65498;50.916;4.698;2023-04-01T00:35:24;21.80;49.10
76607;DHT22;65498;50.916;4.698;2023-04-01T00:37:51;21.80;49.10
76607;DHT22;65498;50.916;4.698;2023-04-01T00:40:28;21.70;49.00
76607;DHT22;65498;50.916;4.698;2023-04-01T00:42:57;21.70;49.20
76607;DHT22;65498;50.916;4.698;2023-04-01T00:45:34;21.70;49.10
76607;DHT22;65498;50.916;4.698;2023-04-01T00:48:02;21.70;49.10
76607;DHT22;65498;50.916;4.698;2023-04-01T00:50:29;21.70;49.10
76607;DHT22;65498;50.916;4.698;2023-04-01T00:53:00;21.70;49.10
76607;DHT22;65498;50.916;4.698;2023-04-01T00:55:30;21.60;49.10
76607;DHT22;65498;50.916;4.698;2023-04-01T00:57:59;21.70;49.10
76607;DHT22;65498;50.916;4.698;2023-04-01T01:00:27;21.70;49.00
76607;DHT22;65498;50.916;4.698;2023-04-01T01:02:54;21.60;49.00
76607;DHT22;65498;50.916;4.698;2023-04-01T01:05:28;21.60;49.00
76607;DHT22;65498;50.916;4.698;2023-04-01T01:08:07;21.60;48.90
76607;DHT22;65498;50.916;4.698;2023-04-01T01:10:34;21.60;48.90
76607;DHT22;65498;50.916;4.698;2023-04-01T01:13:17;21.60;49.00
76607;DHT22;65498;50.916;4.698;2023-04-01T01:15:49;21.60;48.90
76607;DHT22;65498;50.916;4.698;2023-04-01T01:24:08;21.60;48.90
76607;DHT22;65498;50.916;4.698;2023-04-01T01:26:56;21.60;49.10
76607;DHT22;65498;50.916;4.698;2023-04-01T01:29:42;21.60;49.00
76607;DHT22;65498;50.916;4.698;2023-04-01T01:35:20;21.60;49.10
76607;DHT22;65498;50.916;4.698;2023-04-01T01:37:51;21.50;49.10
76607;DHT22;65498;50.916;4.698;2023-04-01T01:40:19;21.50;49.30
76607;DHT22;65498;50.916;4.698;2023-04-01T01:42:50;21.50;50.10
76607;DHT22;65498;50.916;4.698;2023-04-01T01:45:20;21.50;49.40
76607;DHT22;65498;50.916;4.698;2023-04-01T01:47:49;21.50;49.20
76607;DHT22;65498;50.916;4.698;2023-04-01T01:50:19;21.50;49.30
76607;DHT22;65498;50.916;4.698;2023-04-01T01:52:48;21.50;49.40
76607;DHT22;65498;50.916;4.698;2023-04-01T01:55:25;21.50;49.30
76607;DHT22;65498;50.916;4.698;2023-04-01T01:57:53;21.50;49.50
76607;DHT22;65498;50.916;4.698;2023-04-01T02:00:22;21.40;49.30
76607;DHT22;65498;50.916;4.698;2023-04-01T02:02:50;21.40;49.30
76607;DHT22;65498;50.916;4.698;2023-04-01T02:05:21;21.40;49.40
76607;DHT22;65498;50.916;4.698;2023-04-01T02:07:59;21.40;49.30
76607;DHT22;65498;50.916;4.698;2023-04-01T02:10:25;21.40;49.30
76607;DHT22;65498;50.916;4.698;2023-04-01T02:12:56;21.40;49.40
76607;DHT22;65498;50.916;4.698;2023-04-01T02:15:25;21.40;49.30
76607;DHT22;65498;50.916;4.698;2023-04-01T02:17:55;21.40;49.50
76607;DHT22;65498;50.916;4.698;2023-04-01T02:20:25;21.40;49.30
76607;DHT22;65498;50.916;4.698;2023-04-01T02:22:55;21.40;49.30
76607;DHT22;65498;50.916;4.698;2023-04-01T02:25:27;21.30;49.40
76607;DHT22;65498;50.916;4.698;2023-04-01T02:27:57;21.40;49.40
76607;DHT22;65498;50.916;4.698;2023-04-01T02:30:27;21.30;49.30
76607;DHT22;65498;50.916;4.698;2023-04-01T02:32:57;21.30;49.40
76607;DHT22;65498;50.916;4.698;2023-04-01T02:35:26;21.30;49.30
76607;DHT22;65498;50.916;4.698;2023-04-01T02:37:54;21.30;49.40
76607;DHT22;65498;50.916;4.698;2023-04-01T02:40:22;21.30;49.40
76607;DHT22;65498;50.916;4.698;2023-04-01T02:42:50;21.30;49.40
76607;DHT22;65498;50.916;4.698;2023-04-01T02:45:17;21.30;49.40
76607;DHT22;65498;50.916;4.698;2023-04-01T02:47:45;21.30;49.40
76607;DHT22;65498;50.916;4.698;2023-04-01T02:50:13;21.30;49.40
76607;DHT22;65498;50.916;4.698;2023-04-01T02:52:40;21.30;49.20
76607;DHT22;65498;50.916;4.698;2023-04-01T02:55:08;21.30;49.40
76607;DHT22;65498;50.916;4.698;2023-04-01T02:57:36;21.30;49.40
76607;DHT22;65498;50.916;4.698;2023-04-01T03:00:04;21.30;49.30
76607;DHT22;65498;50.916;4.698;2023-04-01T03:02:34;21.30;49.40
76607;DHT22;65498;50.916;4.698;2023-04-01T03:05:03;21.30;49.40
76607;DHT22;65498;50.916;4.698;2023-04-01T03:07:30;21.30;49.50
76607;DHT22;65498;50.916;4.698;2023-04-01T03:09:58;21.30;49.50
76607;DHT22;65498;50.916;4.698;2023-04-01T03:12:26;21.30;49.50
76607;DHT22;65498;50.916;4.698;2023-04-01T03:14:53;21.20;49.40
76607;DHT22;65498;50.916;4.698;2023-04-01T03:17:21;21.30;49.30
76607;DHT22;65498;50.916;4.698;2023-04-01T03:19:48;21.20;49.30
76607;DHT22;65498;50.916;4.698;2023-04-01T03:22:16;21.20;49.40
76607;DHT22;65498;50.916;4.698;2023-04-01T03:24:45;21.20;49.50
76607;DHT22;65498;50.916;4.698;2023-04-01T03:27:13;21.20;49.40
76607;DHT22;65498;50.916;4.698;2023-04-01T03:29:40;21.20;49.40
76607;DHT22;65498;50.916;4.698;2023-04-01T03:32:08;21.20;49.70
76607;DHT22;65498;50.916;4.698;2023-04-01T03:34:36;21.10;49.40
76607;DHT22;65498;50.916;4.698;2023-04-01T03:37:03;21.20;49.50
76607;DHT22;65498;50.916;4.698;2023-04-01T03:39:32;21.10;49.50
76607;DHT22;65498;50.916;4.698;2023-04-01T03:41:59;21.10;49.60
76607;DHT22;65498;50.916;4.698;2023-04-01T03:44:31;21.20;49.60
76607;DHT22;65498;50.916;4.698;2023-04-01T03:46:59;21.10;50.30
76607;DHT22;65498;50.916;4.698;2023-04-01T03:49:27;21.10;49.60
76607;DHT22;65498;50.916;4.698;2023-04-01T03:51:54;21.10;49.60
76607;DHT22;65498;50.916;4.698;2023-04-01T03:54:22;21.10;49.50
76607;DHT22;65498;50.916;4.698;2023-04-01T03:56:49;21.10;49.80
76607;DHT22;65498;50.916;4.698;2023-04-01T03:59:17;21.10;49.60
76607;DHT22;65498;50.916;4.698;2023-04-01T04:01:46;21.10;49.70
76607;DHT22;65498;50.916;4.698;2023-04-01T04:04:14;21.10;49.70
76607;DHT22;65498;50.916;4.698;2023-04-01T04:06:41;21.10;49.60
76607;DHT22;65498;50.916;4.698;2023-04-01T04:09:09;21.10;49.80
76607;DHT22;65498;50.916;4.698;2023-04-01T04:11:36;21.10;49.70
76607;DHT22;65498;50.916;4.698;2023-04-01T04:14:04;21.10;49.70
76607;DHT22;65498;50.916;4.698;2023-04-01T04:16:31;21.10;49.80
76607;DHT22;65498;50.916;4.698;2023-04-01T04:18:59;21.00;49.70
76607;DHT22;65498;50.916;4.698;2023-04-01T04:21:26;21.10;49.80
76607;DHT22;65498;50.916;4.698;2023-04-01T04:23:54;21.00;49.70
76607;DHT22;65498;50.916;4.698;2023-04-01T04:26:21;21.00;49.70
76607;DHT22;65498;50.916;4.698;2023-04-01T04:28:49;21.00;49.70
76607;DHT22;65498;50.916;4.698;2023-04-01T04:31:21;21.00;50.20
76607;DHT22;65498;50.916;4.698;2023-04-01T04:33:49;21.00;49.60
76607;DHT22;65498;50.916;4.698;2023-04-01T04:36:18;21.00;49.70
76607;DHT22;65498;50.916;4.698;2023-04-01T04:38:46;21.00;49.60
76607;DHT22;65498;50.916;4.698;2023-04-01T04:41:15;21.00;49.80
76607;DHT22;65498;50.916;4.698;2023-04-01T04:43:52;21.00;49.80
76607;DHT22;65498;50.916;4.698;2023-04-01T04:46:20;21.00;49.70
76607;DHT22;65498;50.916;4.698;2023-04-01T04:48:48;21.00;49.60
76607;DHT22;65498;50.916;4.698;2023-04-01T04:51:17;21.00;49.70
76607;DHT22;65498;50.916;4.698;2023-04-01T04:53:45;21.00;49.80
76607;DHT22;65498;50.916;4.698;2023-04-01T04:56:16;21.00;49.70
76607;DHT22;65498;50.916;4.698;2023-04-01T04:58:42;21.00;49.70
76607;DHT22;65498;50.916;4.698;2023-04-01T05:01:12;21.00;49.70
76607;DHT22;65498;50.916;4.698;2023-04-01T05:03:40;21.00;49.80
76607;DHT22;65498;50.916;4.698;2023-04-01T05:06:09;21.00;49.70
76607;DHT22;65498;50.916;4.698;2023-04-01T05:08:37;20.90;49.70
76607;DHT22;65498;50.916;4.698;2023-04-01T05:11:07;21.00;49.80
76607;DHT22;65498;50.916;4.698;2023-04-01T05:13:37;21.00;49.80
76607;DHT22;65498;50.916;4.698;2023-04-01T05:16:10;21.00;49.80
76607;DHT22;65498;50.916;4.698;2023-04-01T05:18:38;20.90;49.70
76607;DHT22;65498;50.916;4.698;2023-04-01T05:21:07;20.90;49.80
76607;DHT22;65498;50.916;4.698;2023-04-01T05:23:36;20.90;49.80
76607;DHT22;65498;50.916;4.698;2023-04-01T05:26:05;20.90;49.80
76607;DHT22;65498;50.916;4.698;2023-04-01T05:28:33;20.90;49.80
76607;DHT22;65498;50.916;4.698;2023-04-01T05:31:01;20.90;49.80
76607;DHT22;65498;50.916;4.698;2023-04-01T05:33:30;20.90;49.70
76607;DHT22;65498;50.916;4.698;2023-04-01T05:36:09;20.90;49.70
76607;DHT22;65498;50.916;4.698;2023-04-01T05:38:34;20.90;49.70
76607;DHT22;65498;50.916;4.698;2023-04-01T05:41:02;20.90;50.40
76607;DHT22;65498;50.916;4.698;2023-04-01T05:43:29;20.90;49.70
76607;DHT22;65498;50.916;4.698;2023-04-01T05:45:58;20.90;49.80
76607;DHT22;65498;50.916;4.698;2023-04-01T05:48:25;20.90;49.90
76607;DHT22;65498;50.916;4.698;2023-04-01T05:50:53;20.80;49.80
76607;DHT22;65498;50.916;4.698;2023-04-01T05:53:20;20.80;50.00
76607;DHT22;65498;50.916;4.698;2023-04-01T05:55:48;20.80;50.10
76607;DHT22;65498;50.916;4.698;2023-04-01T05:58:16;20.80;50.10
76607;DHT22;65498;50.916;4.698;2023-04-01T06:00:43;20.80;50.10
76607;DHT22;65498;50.916;4.698;2023-04-01T06:03:11;20.80;49.90
76607;DHT22;65498;50.916;4.698;2023-04-01T06:05:41;20.80;50.20
76607;DHT22;65498;50.916;4.698;2023-04-01T06:08:17;20.80;50.50
76607;DHT22;65498;50.916;4.698;2023-04-01T06:13:40;20.80;50.00
76607;DHT22;65498;50.916;4.698;2023-04-01T06:19:04;20.90;50.00
76607;DHT22;65498;50.916;4.698;2023-04-01T06:27:07;20.90;50.00
76607;DHT22;65498;50.916;4.698;2023-04-01T06:29:46;20.90;50.20
76607;DHT22;65498;50.916;4.698;2023-04-01T06:32:17;20.90;50.10
76607;DHT22;65498;50.916;4.698;2023-04-01T06:34:50;21.00;49.90
76607;DHT22;65498;50.916;4.698;2023-04-01T06:37:28;20.90;50.20
76607;DHT22;65498;50.916;4.698;2023-04-01T06:40:00;21.00;50.20
76607;DHT22;65498;50.916;4.698;2023-04-01T06:42:35;20.90;50.30
76607;DHT22;65498;50.916;4.698;2023-04-01T06:50:42;20.90;50.30
76607;DHT22;65498;50.916;4.698;2023-04-01T06:55:47;20.90;50.40
76607;DHT22;65498;50.916;4.698;2023-04-01T06:58:29;20.90;50.60
76607;DHT22;65498;50.916;4.698;2023-04-01T07:00:53;20.90;50.60
76607;DHT22;65498;50.916;4.698;2023-04-01T07:06:05;21.00;50.40
76607;DHT22;65498;50.916;4.698;2023-04-01T07:08:36;21.10;50.30
76607;DHT22;65498;50.916;4.698;2023-04-01T07:11:06;21.20;50.20
76607;DHT22;65498;50.916;4.698;2023-04-01T07:13:53;21.20;50.10
76607;DHT22;65498;50.916;4.698;2023-04-01T07:16:36;21.20;50.00
76607;DHT22;65498;50.916;4.698;2023-04-01T07:19:06;21.30;50.00
76607;DHT22;65498;50.916;4.698;2023-04-01T07:21:58;21.30;50.00
76607;DHT22;65498;50.916;4.698;2023-04-01T07:24:37;21.30;49.90
76607;DHT22;65498;50.916;4.698;2023-04-01T07:27:10;21.40;49.80
76607;DHT22;65498;50.916;4.698;2023-04-01T07:29:37;21.40;49.90
76607;DHT22;65498;50.916;4.698;2023-04-01T07:34:55;21.40;49.90
76607;DHT22;65498;50.916;4.698;2023-04-01T07:43:14;21.50;49.90
76607;DHT22;65498;50.916;4.698;2023-04-01T07:45:51;21.50;49.70
76607;DHT22;65498;50.916;4.698;2023-04-01T07:54:17;21.50;49.80
76607;DHT22;65498;50.916;4.698;2023-04-01T07:56:59;21.50;49.80
76607;DHT22;65498;50.916;4.698;2023-04-01T08:05:27;21.60;49.80
76607;DHT22;65498;50.916;4.698;2023-04-01T08:08:08;21.60;49.60
76607;DHT22;65498;50.916;4.698;2023-04-01T08:10:52;21.60;49.70
76607;DHT22;65498;50.916;4.698;2023-04-01T08:21:51;21.70;49.70
76607;DHT22;65498;50.916;4.698;2023-04-01T08:24:33;21.70;49.70
76607;DHT22;65498;50.916;4.698;2023-04-01T08:27:00;21.60;49.70
76607;DHT22;65498;50.916;4.698;2023-04-01T08:29:38;21.70;49.70
76607;DHT22;65498;50.916;4.698;2023-04-01T08:32:11;21.70;49.80
76607;DHT22;65498;50.916;4.698;2023-04-01T08:34:40;21.70;49.70
76607;DHT22;65498;50.916;4.698;2023-04-01T08:37:14;21.70;49.80
76607;DHT22;65498;50.916;4.698;2023-04-01T08:43:06;21.70;49.90
76607;DHT22;65498;50.916;4.698;2023-04-01T08:45:44;21.80;49.80
76607;DHT22;65498;50.916;4.698;2023-04-01T08:59:44;21.80;49.90
76607;DHT22;65498;50.916;4.698;2023-04-01T09:02:23;21.70;49.80
76607;DHT22;65498;50.916;4.698;2023-04-01T09:10:39;21.70;50.00
76607;DHT22;65498;50.916;4.698;2023-04-01T09:16:26;21.80;50.00
76607;DHT22;65498;50.916;4.698;2023-04-01T09:18:59;21.80;49.90
76607;DHT22;65498;50.916;4.698;2023-04-01T09:35:24;21.70;50.20
76607;DHT22;65498;50.916;4.698;2023-04-01T09:37:58;21.70;50.10
76607;DHT22;65498;50.916;4.698;2023-04-01T09:40:37;21.70;50.40
76607;DHT22;65498;50.916;4.698;2023-04-01T10:00:13;21.90;50.50
76607;DHT22;65498;50.916;4.698;2023-04-01T10:16:33;22.00;50.90
76607;DHT22;65498;50.916;4.698;2023-04-01T10:19:04;22.00;50.70
76607;DHT22;65498;50.916;4.698;2023-04-01T10:35:55;22.10;50.50
76607;DHT22;65498;50.916;4.698;2023-04-01T10:38:29;22.10;50.40
76607;DHT22;65498;50.916;4.698;2023-04-01T10:44:11;22.10;50.30
76607;DHT22;65498;50.916;4.698;2023-04-01T10:49:42;22.10;50.50
76607;DHT22;65498;50.916;4.698;2023-04-01T10:52:31;22.00;50.60
76607;DHT22;65498;50.916;4.698;2023-04-01T11:23:06;22.00;50.50
76607;DHT22;65498;50.916;4.698;2023-04-01T11:37:04;21.80;50.90
76607;DHT22;65498;50.916;4.698;2023-04-01T11:45:24;21.80;50.80
76607;DHT22;65498;50.916;4.698;2023-04-01T12:07:35;21.50;51.70
76607;DHT22;65498;50.916;4.698;2023-04-01T12:13:02;21.40;51.80
76607;DHT22;65498;50.916;4.698;2023-04-01T12:19:03;21.30;52.10
76607;DHT22;65498;50.916;4.698;2023-04-01T12:24:11;21.40;52.00
76607;DHT22;65498;50.916;4.698;2023-04-01T12:26:55;21.40;51.90
76607;DHT22;65498;50.916;4.698;2023-04-01T12:32:24;21.40;51.90
76607;DHT22;65498;50.916;4.698;2023-04-01T12:35:16;21.40;51.80
76607;DHT22;65498;50.916;4.698;2023-04-01T12:46:05;21.40;51.90
76607;DHT22;65498;50.916;4.698;2023-04-01T12:48:39;21.40;51.90
76607;DHT22;65498;50.916;4.698;2023-04-01T12:51:24;21.40;51.90
76607;DHT22;65498;50.916;4.698;2023-04-01T12:57:41;21.40;51.80
76607;DHT22;65498;50.916;4.698;2023-04-01T13:02:06;21.40;51.60
76607;DHT22;65498;50.916;4.698;2023-04-01T13:04:48;21.40;51.50
76607;DHT22;65498;50.916;4.698;2023-04-01T13:10:05;21.40;51.40
76607;DHT22;65498;50.916;4.698;2023-04-01T13:12:54;21.40;51.40
76607;DHT22;65498;50.916;4.698;2023-04-01T13:15:20;21.40;51.50
76607;DHT22;65498;50.916;4.698;2023-04-01T13:20:32;21.40;51.30
76607;DHT22;65498;50.916;4.698;2023-04-01T13:23:22;21.40;51.40
76607;DHT22;65498;50.916;4.698;2023-04-01T13:26:05;21.30;51.40
76607;DHT22;65498;50.916;4.698;2023-04-01T13:28:40;21.30;51.40
76607;DHT22;65498;50.916;4.698;2023-04-01T13:36:56;21.30;51.30
76607;DHT22;65498;50.916;4.698;2023-04-01T13:42:26;21.40;51.20
76607;DHT22;65498;50.916;4.698;2023-04-01T14:08:10;21.20;51.60
76607;DHT22;65498;50.916;4.698;2023-04-01T14:10:48;21.20;51.50
76607;DHT22;65498;50.916;4.698;2023-04-01T14:21:41;21.20;51.60
76607;DHT22;65498;50.916;4.698;2023-04-01T14:38:28;21.10;51.60
76607;DHT22;65498;50.916;4.698;2023-04-01T14:41:17;21.10;51.50
76607;DHT22;65498;50.916;4.698;2023-04-01T14:49:39;21.10;51.60
76607;DHT22;65498;50.916;4.698;2023-04-01T14:54:54;21.10;51.80
76607;DHT22;65498;50.916;4.698;2023-04-01T14:57:31;21.20;52.30
76607;DHT22;65498;50.916;4.698;2023-04-01T15:02:45;21.20;52.40
76607;DHT22;65498;50.916;4.698;2023-04-01T15:05:15;21.20;52.60
76607;DHT22;65498;50.916;4.698;2023-04-01T15:21:16;21.30;53.30
76607;DHT22;65498;50.916;4.698;2023-04-01T15:23:54;21.30;53.60
76607;DHT22;65498;50.916;4.698;2023-04-01T15:26:31;21.30;53.50
76607;DHT22;65498;50.916;4.698;2023-04-01T15:32:04;21.40;52.80
76607;DHT22;65498;50.916;4.698;2023-04-01T15:34:36;21.40;52.70
76607;DHT22;65498;50.916;4.698;2023-04-01T15:43:24;21.40;52.90
76607;DHT22;65498;50.916;4.698;2023-04-01T15:51:38;21.40;52.80
76607;DHT22;65498;50.916;4.698;2023-04-01T15:54:25;21.40;52.50
76607;DHT22;65498;50.916;4.698;2023-04-01T16:02:40;21.40;52.70
76607;DHT22;65498;50.916;4.698;2023-04-01T16:08:10;21.50;52.60
76607;DHT22;65498;50.916;4.698;2023-04-01T16:22:04;21.60;51.80
76607;DHT22;65498;50.916;4.698;2023-04-01T16:27:25;21.40;52.00
76607;DHT22;65498;50.916;4.698;2023-04-01T16:33:20;21.40;52.00
76607;DHT22;65498;50.916;4.698;2023-04-01T16:35:58;21.40;52.10
76607;DHT22;65498;50.916;4.698;2023-04-01T16:38:33;21.40;52.10
76607;DHT22;65498;50.916;4.698;2023-04-01T16:41:24;21.30;52.10
76607;DHT22;65498;50.916;4.698;2023-04-01T16:44:43;21.30;52.10
76607;DHT22;65498;50.916;4.698;2023-04-01T16:46:32;21.40;52.00
76607;DHT22;65498;50.916;4.698;2023-04-01T16:49:13;21.50;51.80
76607;DHT22;65498;50.916;4.698;2023-04-01T16:54:39;21.50;51.80
76607;DHT22;65498;50.916;4.698;2023-04-01T17:00:14;21.30;52.20
76607;DHT22;65498;50.916;4.698;2023-04-01T17:02:43;21.30;52.20
76607;DHT22;65498;50.916;4.698;2023-04-01T17:05:11;21.40;51.80
76607;DHT22;65498;50.916;4.698;2023-04-01T17:08:05;21.40;51.50
76607;DHT22;65498;50.916;4.698;2023-04-01T17:13:11;21.40;51.00
76607;DHT22;65498;50.916;4.698;2023-04-01T17:18:24;21.40;51.40
76607;DHT22;65498;50.916;4.698;2023-04-01T17:21:14;21.40;51.20
76607;DHT22;65498;50.916;4.698;2023-04-01T17:23:53;21.40;51.30
76607;DHT22;65498;50.916;4.698;2023-04-01T17:29:23;21.50;51.20
76607;DHT22;65498;50.916;4.698;2023-04-01T17:32:02;21.60;51.00
76607;DHT22;65498;50.916;4.698;2023-04-01T17:34:51;21.60;50.90
76607;DHT22;65498;50.916;4.698;2023-04-01T17:37:33;21.60;50.90
76607;DHT22;65498;50.916;4.698;2023-04-01T17:42:46;21.60;50.90
76607;DHT22;65498;50.916;4.698;2023-04-01T17:45:49;21.60;50.70
76607;DHT22;65498;50.916;4.698;2023-04-01T17:48:24;21.70;50.60
76607;DHT22;65498;50.916;4.698;2023-04-01T17:51:04;21.70;50.70
76607;DHT22;65498;50.916;4.698;2023-04-01T17:54:20;21.70;50.80
76607;DHT22;65498;50.916;4.698;2023-04-01T17:56:18;21.80;50.60
76607;DHT22;65498;50.916;4.698;2023-04-01T17:58:48;21.90;50.40
76607;DHT22;65498;50.916;4.698;2023-04-01T18:04:31;21.70;50.80
76607;DHT22;65498;50.916;4.698;2023-04-01T18:07:07;21.70;51.00
76607;DHT22;65498;50.916;4.698;2023-04-01T18:15:49;21.60;51.20
76607;DHT22;65498;50.916;4.698;2023-04-01T18:18:42;21.70;51.70
76607;DHT22;65498;50.916;4.698;2023-04-01T18:23:44;21.80;50.70
76607;DHT22;65498;50.916;4.698;2023-04-01T18:26:20;21.80;50.60
76607;DHT22;65498;50.916;4.698;2023-04-01T18:29:04;21.90;50.60
76607;DHT22;65498;50.916;4.698;2023-04-01T18:31:32;21.90;50.50
76607;DHT22;65498;50.916;4.698;2023-04-01T18:39:49;21.90;50.60
76607;DHT22;65498;50.916;4.698;2023-04-01T18:42:38;21.90;50.60
76607;DHT22;65498;50.916;4.698;2023-04-01T18:45:21;21.90;50.60
76607;DHT22;65498;50.916;4.698;2023-04-01T18:50:50;21.90;50.70
76607;DHT22;65498;50.916;4.698;2023-04-01T18:53:25;21.90;50.80
76607;DHT22;65498;50.916;4.698;2023-04-01T18:56:05;21.90;50.90
76607;DHT22;65498;50.916;4.698;2023-04-01T18:58:48;22.00;50.60
76607;DHT22;65498;50.916;4.698;2023-04-01T19:01:33;22.00;50.40
76607;DHT22;65498;50.916;4.698;2023-04-01T19:06:56;22.00;50.40
76607;DHT22;65498;50.916;4.698;2023-04-01T19:12:13;22.00;50.30
76607;DHT22;65498;50.916;4.698;2023-04-01T19:15:19;21.90;50.40
76607;DHT22;65498;50.916;4.698;2023-04-01T19:17:58;21.90;50.50
76607;DHT22;65498;50.916;4.698;2023-04-01T19:20:37;21.90;50.40
76607;DHT22;65498;50.916;4.698;2023-04-01T19:25:57;21.90;50.40
76607;DHT22;65498;50.916;4.698;2023-04-01T19:34:18;21.90;50.40
76607;DHT22;65498;50.916;4.698;2023-04-01T19:36:48;21.90;51.40
76607;DHT22;65498;50.916;4.698;2023-04-01T19:42:18;21.90;50.40
76607;DHT22;65498;50.916;4.698;2023-04-01T19:53:59;22.00;50.90
76607;DHT22;65498;50.916;4.698;2023-04-01T19:56:15;22.00;50.50
76607;DHT22;65498;50.916;4.698;2023-04-01T19:58:52;22.00;50.60
76607;DHT22;65498;50.916;4.698;2023-04-01T20:01:28;22.10;51.00
76607;DHT22;65498;50.916;4.698;2023-04-01T20:04:05;22.10;51.30
76607;DHT22;65498;50.916;4.698;2023-04-01T20:09:44;22.10;51.40
76607;DHT22;65498;50.916;4.698;2023-04-01T20:12:17;22.10;51.40
76607;DHT22;65498;50.916;4.698;2023-04-01T20:14:45;22.20;51.30
76607;DHT22;65498;50.916;4.698;2023-04-01T20:17:38;22.10;51.50
76607;DHT22;65498;50.916;4.698;2023-04-01T20:25:23;22.30;51.40
76607;DHT22;65498;50.916;4.698;2023-04-01T20:37:00;22.30;51.50
76607;DHT22;65498;50.916;4.698;2023-04-01T20:42:38;22.30;51.60
76607;DHT22;65498;50.916;4.698;2023-04-01T20:45:30;22.30;51.70
76607;DHT22;65498;50.916;4.698;2023-04-01T20:51:01;22.40;51.60
76607;DHT22;65498;50.916;4.698;2023-04-01T20:56:16;22.40;51.50
76607;DHT22;65498;50.916;4.698;2023-04-01T21:01:34;22.30;51.70
76607;DHT22;65498;50.916;4.698;2023-04-01T21:04:18;22.30;51.70
76607;DHT22;65498;50.916;4.698;2023-04-01T21:09:53;22.30;51.80
76607;DHT22;65498;50.916;4.698;2023-04-01T21:12:24;22.30;51.80
76607;DHT22;65498;50.916;4.698;2023-04-01T21:15:16;22.40;51.60
76607;DHT22;65498;50.916;4.698;2023-04-01T21:23:42;22.40;51.00
76607;DHT22;65498;50.916;4.698;2023-04-01T21:34:43;22.40;51.60
76607;DHT22;65498;50.916;4.698;2023-04-01T21:37:27;22.30;51.50
76607;DHT22;65498;50.916;4.698;2023-04-01T21:42:54;22.30;52.00
76607;DHT22;65498;50.916;4.698;2023-04-01T21:45:50;22.40;51.70
76607;DHT22;65498;50.916;4.698;2023-04-01T21:51:30;22.40;51.20
76607;DHT22;65498;50.916;4.698;2023-04-01T22:07:51;22.30;51.90
76607;DHT22;65498;50.916;4.698;2023-04-01T22:13:13;22.20;52.20
76607;DHT22;65498;50.916;4.698;2023-04-01T22:15:52;22.20;52.10
76607;DHT22;65498;50.916;4.698;2023-04-01T22:18:38;22.30;51.80
76607;DHT22;65498;50.916;4.698;2023-04-01T22:21:09;22.30;51.30
76607;DHT22;65498;50.916;4.698;2023-04-01T22:23:47;22.40;51.60
76607;DHT22;65498;50.916;4.698;2023-04-01T22:26:38;22.30;51.50
76607;DHT22;65498;50.916;4.698;2023-04-01T22:29:38;22.40;51.50
76607;DHT22;65498;50.916;4.698;2023-04-01T22:32:08;22.40;51.40
76607;DHT22;65498;50.916;4.698;2023-04-01T22:34:43;22.40;51.50
76607;DHT22;65498;50.916;4.698;2023-04-01T22:40:08;22.30;51.40
76607;DHT22;65498;50.916;4.698;2023-04-01T22:42:59;22.30;51.50
76607;DHT22;65498;50.916;4.698;2023-04-01T22:45:40;22.20;51.70
76607;DHT22;65498;50.916;4.698;2023-04-01T22:48:31;22.10;51.80
76607;DHT22;65498;50.916;4.698;2023-04-01T22:51:04;22.20;52.00
76607;DHT22;65498;50.916;4.698;2023-04-01T22:53:56;22.20;52.00
76607;DHT22;65498;50.916;4.698;2023-04-01T22:56:31;22.20;51.80
76607;DHT22;65498;50.916;4.698;2023-04-01T23:01:43;22.10;52.00
76607;DHT22;65498;50.916;4.698;2023-04-01T23:04:12;22.10;52.10
76607;DHT22;65498;50.916;4.698;2023-04-01T23:06:44;22.00;52.20
76607;DHT22;65498;50.916;4.698;2023-04-01T23:09:14;22.00;52.20
76607;DHT22;65498;50.916;4.698;2023-04-01T23:11:48;22.00;52.20
76607;DHT22;65498;50.916;4.698;2023-04-01T23:17:04;22.10;52.00
76607;DHT22;65498;50.916;4.698;2023-04-01T23:19:52;22.10;51.90
76607;DHT22;65498;50.916;4.698;2023-04-01T23:25:15;22.10;52.60
76607;DHT22;65498;50.916;4.698;2023-04-01T23:35:54;21.90;52.00
76607;DHT22;65498;50.916;4.698;2023-04-01T23:38:25;21.90;52.10
76607;DHT22;65498;50.916;4.698;2023-04-01T23:40:54;21.90;52.30
76607;DHT22;65498;50.916;4.698;2023-04-01T23:43:42;21.90;52.40
76607;DHT22;65498;50.916;4.698;2023-04-01T23:46:12;21.90;52.40
76607;DHT22;65498;50.916;4.698;2023-04-01T23:48:43;21.90;52.20
76607;DHT22;65498;50.916;4.698;2023-04-01T23:51:39;21.90;52.30
76607;DHT22;65498;50.916;4.698;2023-04-01T23:54:30;21.80;52.10
76607;DHT22;65498;50.916;4.698;2023-04-01T23:56:58;21.80;52.00
76607;DHT22;65498;50.916;4.698;2023-04-01T23:59:31;21.90;52.00
